createdAt,value
2023-01-10T00:04:40.269Z,60.90
2023-01-10T00:09:43.843Z,56.30
2023-01-10T00:14:52.773Z,63.50
2023-01-10T00:19:58.716Z,69.80
2023-01-10T00:25:43.501Z,62.40
2023-01-10T00:31:29.815Z,63.60
2023-01-10T00:42:15.820Z,62.00
2023-01-10T00:47:44.838Z,65.90
2023-01-10T00:52:58.528Z,69.70
2023-01-10T00:58:02.700Z,66.20
2023-01-10T01:03:29.167Z,71.60
2023-01-10T01:08:36.745Z,65.60
2023-01-10T01:14:33.377Z,67.60
2023-01-10T01:20:07.564Z,65.00
2023-01-10T01:25:14.111Z,68.70
2023-01-10T01:30:21.668Z,68.30
2023-01-10T01:35:35.346Z,66.60
2023-01-10T01:40:42.558Z,67.20
2023-01-10T01:46:18.975Z,73.00
2023-01-10T01:51:46.034Z,68.60
2023-01-10T01:56:54.756Z,68.10
2023-01-10T02:02:04.086Z,68.00
2023-01-10T02:07:10.192Z,68.10
2023-01-10T02:12:20.068Z,69.60
2023-01-10T02:17:28.943Z,66.60
2023-01-10T02:23:09.163Z,67.10
2023-01-10T02:29:21.080Z,64.10
2023-01-10T02:34:34.699Z,67.60
2023-01-10T02:39:52.676Z,66.00
2023-01-10T02:45:26.191Z,64.90
2023-01-10T02:51:00.356Z,60.30
2023-01-10T02:56:20.761Z,62.00
2023-01-10T03:01:38.635Z,65.30
2023-01-10T03:07:11.848Z,64.30
2023-01-10T03:12:58.001Z,64.30
2023-01-10T03:18:25.561Z,62.10
2023-01-10T03:23:39.365Z,60.30
2023-01-10T03:29:02.719Z,60.50
2023-01-10T03:34:07.350Z,61.00
2023-01-10T03:40:15.136Z,68.80
2023-01-10T03:45:26.065Z,70.60
2023-01-10T03:50:37.789Z,65.20
2023-01-10T03:55:51.937Z,62.40
2023-01-10T04:01:01.032Z,65.80
2023-01-10T04:06:28.484Z,71.10
2023-01-10T04:11:56.338Z,69.60
2023-01-10T04:17:51.617Z,66.70
2023-01-10T04:23:05.347Z,62.30
2023-01-10T04:28:51.980Z,63.20
2023-01-10T04:34:08.645Z,60.30
2023-01-10T04:39:18.001Z,65.10
2023-01-10T04:44:21.337Z,57.20
2023-01-10T04:49:58.232Z,60.90
2023-01-10T04:55:01.604Z,59.40
2023-01-10T05:00:48.630Z,57.20
2023-01-10T05:06:32.604Z,65.90
2023-01-10T05:11:36.502Z,64.80
2023-01-10T05:17:02.554Z,64.00
2023-01-10T05:22:09.224Z,58.00
2023-01-10T05:27:15.123Z,60.10
2023-01-10T05:32:43.178Z,62.50
2023-01-10T05:37:54.403Z,54.40
2023-01-10T05:43:23.204Z,56.80
2023-01-10T05:48:32.024Z,56.20
2023-01-10T05:53:38.099Z,59.20
2023-01-10T05:58:51.366Z,57.90
2023-01-10T06:04:01.028Z,62.10
2023-01-10T06:09:06.885Z,53.60
2023-01-10T06:14:10.371Z,53.80
2023-01-10T06:19:14.391Z,57.30
2023-01-10T06:24:18.306Z,54.90
2023-01-10T06:29:21.902Z,56.20
2023-01-10T06:35:18.241Z,55.00
2023-01-10T06:40:25.138Z,57.30
2023-01-10T06:45:28.692Z,53.80
2023-01-10T06:50:42.859Z,56.20
2023-01-10T06:55:50.728Z,53.90
2023-01-10T07:00:54.198Z,55.00
2023-01-10T07:06:12.450Z,50.00
2023-01-10T07:11:32.118Z,49.40
2023-01-10T07:16:35.852Z,47.50
2023-01-10T07:21:39.922Z,47.10
2023-01-10T07:27:26.708Z,49.00
2023-01-10T07:32:30.204Z,48.40
2023-01-10T07:38:14.087Z,46.50
2023-01-10T07:43:38.269Z,44.90
2023-01-10T07:48:55.118Z,44.50
2023-01-10T07:53:58.768Z,47.30
2023-01-10T07:59:04.999Z,43.90
2023-01-10T08:04:12.870Z,43.90
2023-01-10T08:09:35.415Z,43.70
2023-01-10T08:15:05.569Z,45.50
2023-01-10T08:20:24.335Z,47.10
2023-01-10T08:25:41.976Z,43.80
2023-01-10T08:30:55.578Z,44.00
2023-01-10T08:36:35.180Z,38.60
2023-01-10T08:42:11.034Z,38.20
2023-01-10T08:47:28.844Z,49.50
2023-01-10T08:53:01.126Z,40.40
2023-01-10T08:58:04.844Z,42.30
2023-01-10T09:03:11.938Z,40.20
2023-01-10T09:08:22.805Z,38.20
2023-01-10T09:14:07.881Z,39.50
2023-01-10T09:19:48.128Z,39.90
2023-01-10T09:25:04.542Z,40.40
2023-01-10T09:31:04.415Z,43.80
2023-01-10T09:36:10.352Z,44.00
2023-01-10T09:42:23.596Z,42.50
2023-01-10T09:47:51.034Z,43.70
2023-01-10T09:53:21.762Z,43.10
2023-01-10T09:58:38.779Z,43.50
2023-01-10T10:03:54.335Z,41.40
2023-01-10T10:08:58.329Z,43.40
2023-01-10T10:14:29.819Z,47.70
2023-01-10T10:20:20.811Z,44.20
2023-01-10T10:25:44.483Z,42.00
2023-01-10T10:31:31.909Z,39.70
2023-01-10T10:36:57.711Z,42.40
2023-01-10T10:42:12.990Z,45.30
2023-01-10T10:47:19.328Z,46.90
2023-01-10T10:52:31.579Z,39.10
2023-01-10T10:57:43.456Z,43.80
2023-01-10T11:03:03.922Z,44.50
2023-01-10T11:08:20.407Z,42.40
2023-01-10T11:13:48.577Z,42.20
2023-01-10T11:19:26.723Z,39.00
2023-01-10T11:24:34.196Z,38.30
2023-01-10T11:29:45.589Z,38.30
2023-01-10T11:35:16.482Z,40.60
2023-01-10T11:40:44.395Z,35.70
2023-01-10T11:46:02.550Z,36.30
2023-01-10T11:51:16.620Z,36.70
2023-01-10T11:56:27.499Z,35.20
2023-01-10T12:02:27.716Z,33.90
2023-01-10T12:08:08.017Z,36.90
2023-01-10T12:13:23.021Z,39.30
2023-01-10T12:18:29.378Z,40.10
2023-01-10T12:24:34.581Z,40.30
2023-01-10T12:30:25.555Z,39.50
2023-01-10T12:35:46.410Z,41.30
2023-01-10T12:41:36.113Z,38.30
2023-01-10T12:47:05.772Z,40.80
2023-01-10T12:52:54.972Z,38.70
2023-01-10T12:58:01.833Z,32.60
2023-01-10T13:03:53.582Z,37.10
2023-01-10T13:09:14.438Z,37.30
2023-01-10T13:14:57.729Z,40.00
2023-01-10T13:20:39.071Z,44.10
2023-01-10T13:25:55.278Z,38.10
2023-01-10T13:31:23.594Z,37.50
2023-01-10T13:37:36.186Z,36.00
2023-01-10T13:43:21.780Z,33.50
2023-01-10T13:48:33.992Z,36.30
2023-01-10T13:54:03.607Z,36.70
2023-01-10T14:00:01.028Z,35.70
2023-01-10T14:05:40.943Z,39.30
2023-01-10T14:10:47.298Z,37.60
2023-01-10T14:16:10.523Z,35.20
2023-01-10T14:21:55.146Z,38.50
2023-01-10T14:27:02.058Z,38.40
2023-01-10T14:32:29.112Z,38.30
2023-01-10T14:37:55.763Z,36.40
2023-01-10T14:43:15.305Z,36.70
2023-01-10T14:48:52.062Z,35.80
2023-01-10T14:54:04.808Z,36.00
2023-01-10T15:00:19.170Z,38.80
2023-01-10T15:05:37.528Z,36.70
2023-01-10T15:10:48.170Z,36.90
2023-01-10T15:15:52.660Z,42.20
2023-01-10T15:21:04.568Z,78.80
2023-01-10T15:26:27.623Z,45.90
2023-01-10T15:31:55.678Z,39.30
2023-01-10T15:37:07.246Z,40.80
2023-01-10T15:42:59.797Z,40.30
2023-01-10T15:48:51.830Z,43.00
2023-01-10T15:54:44.539Z,48.10
2023-01-10T16:00:41.480Z,47.30
2023-01-10T16:05:51.948Z,47.30
2023-01-10T16:11:01.415Z,47.50
2023-01-10T16:16:43.427Z,51.00
2023-01-10T16:22:51.374Z,52.30
2023-01-10T16:28:07.273Z,49.50
2023-01-10T16:33:29.652Z,51.00
2023-01-10T16:38:35.092Z,49.20
2023-01-10T16:44:25.606Z,48.20
2023-01-10T16:50:33.948Z,47.10
2023-01-10T16:56:32.565Z,52.20
2023-01-10T17:02:16.690Z,45.50
2023-01-10T17:07:20.596Z,48.70
2023-01-10T17:13:13.552Z,50.50
2023-01-10T17:19:21.452Z,54.80
2023-01-10T17:25:19.075Z,46.90
2023-01-10T17:30:45.158Z,49.80
2023-01-10T17:36:40.197Z,50.40
2023-01-10T17:42:22.996Z,52.20
2023-01-10T17:47:59.179Z,49.90
2023-01-10T17:53:23.123Z,55.00
2023-01-10T17:58:37.550Z,53.00
2023-01-10T18:04:34.229Z,50.80
2023-01-10T18:09:41.349Z,52.30
2023-01-10T18:14:50.810Z,61.50
2023-01-10T18:19:54.122Z,50.40
2023-01-10T18:25:07.867Z,46.60
2023-01-10T18:30:31.569Z,49.60
2023-01-10T18:36:26.571Z,49.00
2023-01-10T18:41:44.408Z,52.20
2023-01-10T18:46:57.342Z,51.70
2023-01-10T18:52:35.189Z,56.60
2023-01-10T18:57:41.373Z,60.50
2023-01-10T19:02:50.275Z,58.80
2023-01-10T19:08:04.209Z,66.40
2023-01-10T19:13:10.167Z,72.00
2023-01-10T19:18:27.342Z,77.20
2023-01-10T19:23:45.271Z,87.10
2023-01-10T19:29:08.986Z,74.20
2023-01-10T19:34:32.908Z,70.20
2023-01-10T19:39:37.218Z,80.30
2023-01-10T19:44:59.983Z,79.90
2023-01-10T19:50:47.329Z,81.50
2023-01-10T19:56:23.047Z,86.70
2023-01-10T20:02:40.867Z,88.60
2023-01-10T20:07:53.287Z,93.50
2023-01-10T20:13:54.679Z,87.40
2023-01-10T20:19:09.801Z,88.90
2023-01-10T20:24:23.632Z,69.50
2023-01-10T20:29:30.332Z,60.00
2023-01-10T20:34:40.038Z,58.90
2023-01-10T20:39:57.219Z,60.00
2023-01-10T20:45:03.005Z,51.80
2023-01-10T20:50:43.901Z,55.90
2023-01-10T20:55:59.127Z,61.00
2023-01-10T21:01:36.245Z,61.40
2023-01-10T21:07:11.631Z,58.90
2023-01-10T21:12:43.680Z,58.50
2023-01-10T21:18:56.478Z,60.80
2023-01-10T21:24:25.726Z,59.70
2023-01-10T21:29:49.361Z,58.90
2023-01-10T21:35:06.988Z,66.90
2023-01-10T21:40:11.313Z,68.80
2023-01-10T21:45:25.656Z,63.90
2023-01-10T21:50:33.770Z,61.50
2023-01-10T21:55:48.396Z,61.90
2023-01-10T22:01:02.015Z,63.20
2023-01-10T22:06:30.646Z,65.70
2023-01-10T22:11:36.916Z,67.10
2023-01-10T22:16:43.288Z,64.10
2023-01-10T22:21:55.563Z,72.40
2023-01-10T22:26:59.694Z,71.30
2023-01-10T22:32:28.913Z,74.50
2023-01-10T22:37:56.162Z,75.70
2023-01-10T22:43:05.102Z,65.50
2023-01-10T22:48:11.358Z,67.80
2023-01-10T22:53:17.504Z,73.80
2023-01-10T22:58:21.694Z,78.50
2023-01-10T23:03:44.356Z,71.90
2023-01-10T23:13:55.064Z,75.70
2023-01-10T23:19:08.868Z,79.70
2023-01-10T23:24:17.107Z,82.20
2023-01-10T23:29:25.501Z,77.30
2023-01-10T23:34:58.145Z,70.90
2023-01-10T23:40:01.733Z,75.50
2023-01-10T23:45:25.582Z,71.70
2023-01-10T23:51:07.621Z,64.60
2023-01-10T23:56:33.642Z,65.90
